createdAt,value
2019-04-14T00:01:56.729Z,99955.87
2019-04-14T00:05:03.994Z,99955.84
2019-04-14T00:08:11.052Z,99953.51
2019-04-14T00:11:17.406Z,99958.00
2019-04-14T00:14:22.884Z,99954.19
2019-04-14T00:17:28.401Z,99953.70
2019-04-14T00:20:33.701Z,99954.36
2019-04-14T00:23:39.065Z,99947.67
2019-04-14T00:26:44.531Z,99950.69
2019-04-14T00:29:50.299Z,99941.16
2019-04-14T00:32:59.533Z,99945.70
2019-04-14T00:36:11.425Z,99946.54
2019-04-14T00:39:22.732Z,99947.17
2019-04-14T00:42:40.876Z,99945.72
2019-04-14T00:45:57.642Z,99953.72
2019-04-14T00:49:00.953Z,99945.52
2019-04-14T00:52:06.185Z,99934.68
2019-04-14T00:55:11.846Z,99936.67
2019-04-14T00:58:17.223Z,99936.20
2019-04-14T01:01:22.427Z,99937.70
2019-04-14T01:04:27.490Z,99937.88
2019-04-14T01:07:32.747Z,99941.38
2019-04-14T01:10:38.921Z,99938.05
2019-04-14T01:13:44.154Z,99930.03
2019-04-14T01:16:53.823Z,99928.37
2019-04-14T01:19:59.325Z,99933.91
2019-04-14T01:23:04.495Z,99932.56
2019-04-14T01:26:09.635Z,99941.41
2019-04-14T01:29:14.791Z,99943.38
2019-04-14T01:32:19.843Z,99945.23
2019-04-14T01:35:24.988Z,99940.05
2019-04-14T01:38:30.252Z,99947.55
2019-04-14T01:41:36.788Z,99944.71
2019-04-14T01:44:42.201Z,99943.72
2019-04-14T01:47:47.484Z,99942.87
2019-04-14T01:51:22.454Z,99941.00
2019-04-14T01:54:36.659Z,99934.84
2019-04-14T01:58:03.225Z,99944.33
2019-04-14T02:01:17.590Z,99942.00
2019-04-14T02:04:22.786Z,99943.61
2019-04-14T02:07:27.936Z,99945.30
2019-04-14T02:10:33.073Z,99943.30
2019-04-14T02:13:38.221Z,99940.99
2019-04-14T02:16:48.694Z,99951.69
2019-04-14T02:19:50.337Z,99951.19
2019-04-14T02:22:55.607Z,99952.05
2019-04-14T02:26:02.151Z,99949.52
2019-04-14T02:29:09.883Z,99954.69
2019-04-14T02:32:42.446Z,99958.31
2019-04-14T02:39:01.890Z,99961.89
2019-04-14T02:45:08.867Z,99964.36
2019-04-14T02:48:29.179Z,99952.67
2019-04-14T02:51:33.722Z,99964.20
2019-04-14T02:54:38.259Z,99970.70
2019-04-14T03:06:54.955Z,99962.55
2019-04-14T03:10:03.267Z,99969.72
2019-04-14T03:13:15.531Z,99976.04
2019-04-14T03:16:24.060Z,99971.19
2019-04-14T03:19:49.606Z,99971.36
2019-04-14T03:22:51.782Z,99980.04
2019-04-14T03:26:04.917Z,99975.73
2019-04-14T03:29:25.060Z,99979.06
2019-04-14T03:32:59.682Z,99978.37
2019-04-14T03:38:45.195Z,99972.88
2019-04-14T03:41:44.787Z,99973.39
2019-04-14T03:48:33.961Z,99964.05
2019-04-14T03:51:13.725Z,99969.20
2019-04-14T03:54:09.651Z,99970.72
2019-04-14T03:56:57.559Z,99969.04
2019-04-14T04:00:03.238Z,99969.38
2019-04-14T04:03:08.556Z,99970.05
2019-04-14T04:06:13.995Z,99967.70
2019-04-14T04:09:21.455Z,99968.23
2019-04-14T04:12:27.163Z,99966.23
2019-04-14T04:15:32.489Z,99969.72
2019-04-14T04:18:48.574Z,99965.06
2019-04-14T04:22:04.239Z,99972.89
2019-04-14T04:25:29.027Z,99973.73
2019-04-14T04:29:00.438Z,99992.56
2019-04-14T04:32:16.515Z,99999.68
2019-04-14T04:35:32.455Z,100008.62
2019-04-14T04:39:03.889Z,100013.08
2019-04-14T04:42:09.383Z,100013.34
2019-04-14T04:45:14.865Z,100009.73
2019-04-14T04:48:20.041Z,100015.06
2019-04-14T04:51:25.227Z,100024.09
2019-04-14T04:54:30.413Z,100021.47
2019-04-14T04:57:35.547Z,100023.70
2019-04-14T05:00:41.671Z,100017.16
2019-04-14T05:03:47.139Z,100017.44
2019-04-14T05:06:59.708Z,100018.81
2019-04-14T05:10:22.188Z,100011.06
2019-04-14T05:13:33.527Z,100014.88
2019-04-14T05:16:39.644Z,100018.38
2019-04-14T05:19:45.465Z,100026.58
2019-04-14T05:22:52.846Z,100028.77
2019-04-14T05:25:58.218Z,100031.45
2019-04-14T05:29:03.622Z,100034.00
2019-04-14T05:32:08.907Z,100031.89
2019-04-14T05:35:14.151Z,100029.03
2019-04-14T05:38:19.329Z,100034.82
2019-04-14T05:41:24.537Z,100037.47
2019-04-14T05:44:29.779Z,100047.75
2019-04-14T05:47:35.030Z,100046.48
2019-04-14T05:50:40.195Z,100049.08
2019-04-14T05:53:48.718Z,100050.69
2019-04-14T05:56:53.928Z,100051.77
2019-04-14T05:59:59.416Z,100056.11
2019-04-14T06:03:06.432Z,100061.18
2019-04-14T06:06:11.572Z,100065.34
2019-04-14T06:09:16.810Z,100067.39
2019-04-14T06:12:21.921Z,100065.14
2019-04-14T06:15:27.096Z,100067.86
2019-04-14T06:18:32.402Z,100070.77
2019-04-14T06:21:37.670Z,100069.64
2019-04-14T06:24:42.862Z,100072.19
2019-04-14T06:27:48.051Z,100080.48
2019-04-14T06:31:11.144Z,100074.27
2019-04-14T06:34:21.499Z,100069.09
2019-04-14T06:37:35.813Z,100071.01
2019-04-14T06:40:51.589Z,100073.67
2019-04-14T06:43:57.060Z,100077.33
2019-04-14T06:47:02.328Z,100078.16
2019-04-14T06:50:08.759Z,100078.66
2019-04-14T06:53:14.080Z,100079.44
2019-04-14T06:56:19.198Z,100071.76
2019-04-14T06:59:24.356Z,100077.87
2019-04-14T07:02:29.461Z,100077.50
2019-04-14T07:05:36.237Z,100075.61
2019-04-14T07:08:41.318Z,100070.14
2019-04-14T07:11:47.597Z,100078.69
2019-04-14T07:14:52.737Z,100075.21
2019-04-14T07:17:57.953Z,100077.66
2019-04-14T07:21:03.176Z,100078.63
2019-04-14T07:24:08.336Z,100076.58
2019-04-14T07:27:13.587Z,100082.02
2019-04-14T07:30:43.679Z,100073.95
2019-04-14T07:34:09.044Z,100084.58
2019-04-14T07:37:22.165Z,100081.45
2019-04-14T07:40:49.321Z,100082.54
2019-04-14T07:44:22.455Z,100086.10
2019-04-14T07:47:32.187Z,100078.31
2019-04-14T07:51:02.734Z,100075.23
2019-04-14T07:54:20.461Z,100074.73
2019-04-14T07:57:47.380Z,100079.94
2019-04-14T08:01:14.255Z,100088.23
2019-04-14T08:04:22.677Z,100077.93
2019-04-14T08:07:28.199Z,100083.46
2019-04-14T08:10:33.335Z,100082.81
2019-04-14T08:13:38.474Z,100089.83
2019-04-14T08:16:43.676Z,100097.68
2019-04-14T08:19:48.912Z,100092.83
2019-04-14T08:22:54.187Z,100085.03
2019-04-14T08:25:59.347Z,100085.75
2019-04-14T08:29:04.580Z,100088.46
2019-04-14T08:32:09.831Z,100082.34
2019-04-14T08:35:14.978Z,100074.64
2019-04-14T08:38:20.156Z,100074.34
2019-04-14T08:41:26.749Z,100071.44
2019-04-14T08:44:40.457Z,100073.09
2019-04-14T08:48:03.112Z,100067.25
2019-04-14T08:51:20.383Z,100063.63
2019-04-14T08:54:38.088Z,100062.98
2019-04-14T08:58:04.228Z,100061.08
2019-04-14T09:01:12.645Z,100058.81
2019-04-14T09:04:45.767Z,100050.09
2019-04-14T09:07:55.680Z,100051.64
2019-04-14T09:11:02.514Z,100053.86
2019-04-14T09:14:07.764Z,100044.06
2019-04-14T09:17:13.067Z,100050.84
2019-04-14T09:20:18.259Z,100043.55
2019-04-14T09:23:23.464Z,100044.55
2019-04-14T09:26:28.782Z,100054.95
2019-04-14T09:29:34.028Z,100055.50
2019-04-14T09:32:39.220Z,100056.03
2019-04-14T09:35:44.293Z,100061.88
2019-04-14T09:38:49.598Z,100051.41
2019-04-14T09:41:54.788Z,100051.48
2019-04-14T09:44:59.979Z,100043.09
2019-04-14T09:48:05.187Z,100058.40
2019-04-14T09:51:11.404Z,100053.16
2019-04-14T09:54:16.539Z,100055.68
2019-04-14T09:57:22.710Z,100055.02
2019-04-14T10:00:27.931Z,100056.94
2019-04-14T10:03:33.215Z,100051.32
2019-04-14T10:06:40.766Z,100062.51
2019-04-14T10:09:45.301Z,100054.00
2019-04-14T10:12:50.430Z,100055.62
2019-04-14T10:15:55.691Z,100058.48
2019-04-14T10:19:00.923Z,100061.86
2019-04-14T10:22:06.106Z,100053.74
2019-04-14T10:25:11.296Z,100050.81
2019-04-14T10:28:16.422Z,100043.05
2019-04-14T10:31:21.580Z,100044.80
2019-04-14T10:34:26.793Z,100045.75
2019-04-14T10:37:31.981Z,100045.41
2019-04-14T10:40:37.186Z,100045.38
2019-04-14T10:43:42.379Z,100047.84
2019-04-14T10:46:47.517Z,100046.27
2019-04-14T10:49:52.726Z,100047.06
2019-04-14T10:52:57.956Z,100044.27
2019-04-14T10:56:03.192Z,100042.62
2019-04-14T10:59:08.448Z,100052.92
2019-04-14T11:02:13.597Z,100056.52
2019-04-14T11:05:18.740Z,100056.27
2019-04-14T11:08:24.078Z,100057.30
2019-04-14T11:11:29.188Z,100055.58
2019-04-14T11:14:34.323Z,100051.32
2019-04-14T11:17:39.410Z,100049.99
2019-04-14T11:20:44.616Z,100049.06
2019-04-14T11:23:49.808Z,100049.43
2019-04-14T11:26:55.022Z,100046.42
2019-04-14T11:30:00.211Z,100053.57
2019-04-14T11:33:13.766Z,100050.93
2019-04-14T11:36:45.873Z,100042.42
2019-04-14T11:39:51.052Z,100040.23
2019-04-14T11:42:56.165Z,100036.41
2019-04-14T11:46:03.799Z,100041.54
2019-04-14T11:49:08.611Z,100040.72
2019-04-14T11:52:13.894Z,100046.73
2019-04-14T11:55:20.847Z,100042.45
2019-04-14T11:58:28.975Z,100035.25
2019-04-14T12:01:58.034Z,100041.94
2019-04-14T12:05:20.855Z,100040.77
2019-04-14T12:08:33.587Z,100044.98
2019-04-14T12:11:38.722Z,100047.19
2019-04-14T12:14:43.947Z,100048.38
2019-04-14T12:17:49.171Z,100051.80
2019-04-14T12:20:54.310Z,100055.55
2019-04-14T12:24:00.460Z,100059.98
2019-04-14T12:27:05.613Z,100048.27
2019-04-14T12:30:11.749Z,100055.83
2019-04-14T12:33:16.966Z,100072.28
2019-04-14T12:36:22.246Z,100070.92
2019-04-14T12:39:27.371Z,100071.99
2019-04-14T12:42:50.452Z,100080.28
2019-04-14T12:46:20.661Z,100073.96
2019-04-14T12:49:30.323Z,100079.67
2019-04-14T12:52:35.525Z,100077.75
2019-04-14T12:55:40.622Z,100077.06
2019-04-14T12:58:52.957Z,100070.31
2019-04-14T13:02:17.111Z,100088.89
2019-04-14T13:05:22.266Z,100083.59
2019-04-14T13:08:27.463Z,100091.05
2019-04-14T13:11:32.563Z,100090.92
2019-04-14T13:14:37.799Z,100087.11
2019-04-14T13:17:43.003Z,100082.55
2019-04-14T13:20:48.341Z,100086.97
2019-04-14T13:23:53.471Z,100085.63
2019-04-14T13:26:58.591Z,100081.09
2019-04-14T13:30:04.346Z,100087.02
2019-04-14T13:33:11.497Z,100094.25
2019-04-14T13:36:16.690Z,100083.48
2019-04-14T13:39:21.825Z,100090.56
2019-04-14T13:42:27.055Z,100085.56
2019-04-14T13:45:32.386Z,100090.02
2019-04-14T13:48:37.580Z,100086.84
2019-04-14T13:51:42.677Z,100092.66
2019-04-14T13:54:47.937Z,100094.23
2019-04-14T13:57:53.094Z,100094.47
2019-04-14T14:00:58.315Z,100095.93
2019-04-14T14:04:03.494Z,100089.34
2019-04-14T14:07:08.742Z,100093.61
2019-04-14T14:10:14.378Z,100093.91
2019-04-14T14:13:35.885Z,100089.78
2019-04-14T14:17:02.820Z,100086.92
2019-04-14T14:20:13.838Z,100098.72
2019-04-14T14:23:28.162Z,100102.13
2019-04-14T14:26:34.427Z,100105.37
2019-04-14T14:29:39.549Z,100103.40
2019-04-14T14:32:44.745Z,100103.07
2019-04-14T14:35:49.874Z,100099.58
2019-04-14T14:38:55.041Z,100108.19
2019-04-14T14:42:00.187Z,100103.12
2019-04-14T14:45:32.264Z,100103.23
2019-04-14T14:48:42.607Z,100104.14
2019-04-14T14:52:01.395Z,100107.47
2019-04-14T14:55:07.075Z,100102.92
2019-04-14T14:58:12.300Z,100108.67
2019-04-14T15:01:17.730Z,100112.81
2019-04-14T15:04:22.986Z,100107.81
2019-04-14T15:07:28.644Z,100108.98
2019-04-14T15:10:33.833Z,100119.72
2019-04-14T15:13:39.049Z,100120.86
2019-04-14T15:16:44.300Z,100125.61
2019-04-14T15:19:49.455Z,100124.08
2019-04-14T15:22:54.612Z,100136.59
2019-04-14T15:25:59.841Z,100134.52
2019-04-14T15:29:05.120Z,100134.11
2019-04-14T15:32:10.305Z,100133.52
2019-04-14T15:35:15.509Z,100134.92
2019-04-14T15:38:20.739Z,100138.14
2019-04-14T15:41:26.311Z,100139.61
2019-04-14T15:44:31.605Z,100139.55
2019-04-14T15:47:36.691Z,100138.52
2019-04-14T15:50:41.904Z,100140.33
2019-04-14T15:53:47.127Z,100136.22
2019-04-14T15:57:17.363Z,100138.27
2019-04-14T16:00:47.648Z,100148.47
2019-04-14T16:04:11.860Z,100155.02
2019-04-14T16:07:36.011Z,100149.81
2019-04-14T16:11:02.291Z,100156.29
2019-04-14T16:14:25.414Z,100151.56
2019-04-14T16:17:42.338Z,100158.19
2019-04-14T16:20:54.275Z,100169.05
2019-04-14T16:23:57.987Z,100174.41
2019-04-14T16:27:37.360Z,100172.50
2019-04-14T16:31:01.872Z,100175.83
2019-04-14T16:34:26.045Z,100181.44
2019-04-14T16:37:31.230Z,100188.76
2019-04-14T16:40:36.939Z,100192.06
2019-04-14T16:43:42.216Z,100195.84
2019-04-14T16:46:47.388Z,100200.22
2019-04-14T16:49:52.820Z,100195.85
2019-04-14T16:53:26.061Z,100206.03
2019-04-14T16:56:59.712Z,100206.72
2019-04-14T17:00:07.306Z,100210.37
2019-04-14T17:03:13.272Z,100211.50
2019-04-14T17:06:18.546Z,100220.16
2019-04-14T17:09:23.697Z,100230.13
2019-04-14T17:12:29.644Z,100224.99
2019-04-14T17:15:45.246Z,100232.47
2019-04-14T17:19:24.850Z,100226.22
2019-04-14T17:22:36.891Z,100238.16
2019-04-14T17:26:03.862Z,100235.23
2019-04-14T17:29:17.253Z,100239.95
2019-04-14T17:32:46.813Z,100251.27
2019-04-14T17:36:01.397Z,100259.20
2019-04-14T17:39:25.025Z,100253.60
2019-04-14T17:43:01.319Z,100260.23
2019-04-14T17:46:35.815Z,100264.33
2019-04-14T17:49:59.929Z,100270.08
2019-04-14T17:53:39.499Z,100280.64
2019-04-14T17:56:55.623Z,100285.83
2019-04-14T18:00:15.394Z,100290.00
2019-04-14T18:03:29.771Z,100292.98
2019-04-14T18:06:51.245Z,100296.29
2019-04-14T18:10:24.642Z,100306.45
2019-04-14T18:13:55.004Z,100307.25
2019-04-14T18:17:11.182Z,100312.16
2019-04-14T18:20:19.827Z,100319.48
2019-04-14T18:23:25.080Z,100320.00
2019-04-14T18:26:30.260Z,100328.58
2019-04-14T18:29:44.054Z,100332.69
2019-04-14T18:32:59.609Z,100333.66
2019-04-14T18:36:09.979Z,100344.38
2019-04-14T18:39:37.032Z,100346.20
2019-04-14T18:42:59.837Z,100346.39
2019-04-14T18:46:22.527Z,100353.76
2019-04-14T18:49:45.999Z,100364.84
2019-04-14T18:53:01.070Z,100369.64
2019-04-14T18:56:12.527Z,100368.97
2019-04-14T18:59:30.342Z,100361.34
2019-04-14T19:02:35.537Z,100373.03
2019-04-14T19:05:40.679Z,100377.22
2019-04-14T19:08:45.941Z,100389.83
2019-04-14T19:11:56.506Z,100391.64
2019-04-14T19:15:09.759Z,100391.72
2019-04-14T19:18:46.002Z,100397.91
2019-04-14T19:21:51.190Z,100389.42
2019-04-14T19:25:07.437Z,100390.92
2019-04-14T19:28:03.344Z,100392.77
2019-04-14T19:31:08.636Z,100394.14
2019-04-14T19:34:14.910Z,100396.66
2019-04-14T19:37:20.135Z,100399.82
2019-04-14T19:40:25.379Z,100399.82
2019-04-14T19:43:30.654Z,100402.05
2019-04-14T19:46:35.907Z,100404.58
2019-04-14T19:49:41.097Z,100402.34
2019-04-14T19:52:46.212Z,100405.84
2019-04-14T19:55:51.408Z,100400.52
2019-04-14T19:58:56.514Z,100406.06
2019-04-14T20:02:01.714Z,100408.91
2019-04-14T20:05:07.005Z,100409.89
2019-04-14T20:08:12.154Z,100417.63
2019-04-14T20:11:17.155Z,100415.09
2019-04-14T20:14:22.317Z,100412.91
2019-04-14T20:17:37.274Z,100408.90
2019-04-14T20:20:52.134Z,100416.28
2019-04-14T20:24:06.159Z,100415.96
2019-04-14T20:27:39.593Z,100428.33
2019-04-14T20:30:51.396Z,100424.65
2019-04-14T20:33:56.686Z,100423.46
2019-04-14T20:37:01.899Z,100422.16
2019-04-14T20:40:07.353Z,100425.01
2019-04-14T20:43:12.598Z,100432.01
2019-04-14T20:46:17.654Z,100425.98
2019-04-14T20:49:22.880Z,100420.13
2019-04-14T20:52:27.999Z,100429.86
2019-04-14T20:55:45.991Z,100426.81
2019-04-14T20:58:39.947Z,100425.98
2019-04-14T21:01:51.457Z,100424.65
2019-04-14T21:05:08.766Z,100421.97
2019-04-14T21:08:35.898Z,100430.17
2019-04-14T21:11:48.599Z,100439.03
2019-04-14T21:15:11.880Z,100433.86
2019-04-14T21:18:25.499Z,100438.39
2019-04-14T21:21:55.534Z,100443.91
2019-04-14T21:25:19.753Z,100451.27
2019-04-14T21:28:34.383Z,100452.94
2019-04-14T21:31:51.277Z,100455.95
2019-04-14T21:35:14.423Z,100459.12
2019-04-14T21:38:41.326Z,100459.64
2019-04-14T21:41:48.115Z,100460.63
2019-04-14T21:44:53.250Z,100466.67
2019-04-14T21:47:58.558Z,100459.14
2019-04-14T21:51:04.805Z,100473.17
2019-04-14T21:54:09.926Z,100478.85
2019-04-14T21:57:36.854Z,100473.86
2019-04-14T22:01:47.895Z,100467.66
2019-04-14T22:05:18.068Z,100474.53
2019-04-14T22:08:26.770Z,100476.67
2019-04-14T22:11:31.870Z,100467.84
2019-04-14T22:14:37.162Z,100479.88
2019-04-14T22:17:42.397Z,100477.03
2019-04-14T22:20:47.603Z,100478.85
2019-04-14T22:24:01.173Z,100479.36
2019-04-14T22:26:59.792Z,100479.86
2019-04-14T22:30:06.725Z,100477.84
2019-04-14T22:33:12.065Z,100477.02
2019-04-14T22:36:17.264Z,100483.37
2019-04-14T22:39:22.572Z,100480.52
2019-04-14T22:42:27.761Z,100486.36
2019-04-14T22:45:32.873Z,100479.34
2019-04-14T22:48:39.486Z,100483.89
2019-04-14T22:51:44.886Z,100484.02
2019-04-14T22:54:50.023Z,100493.05
2019-04-14T22:57:55.273Z,100491.20
2019-04-14T23:01:05.095Z,100494.57
2019-04-14T23:04:35.150Z,100487.87
2019-04-14T23:08:11.387Z,100490.20
2019-04-14T23:11:41.851Z,100491.89
2019-04-14T23:15:24.151Z,100491.88
2019-04-14T23:18:48.349Z,100492.22
2019-04-14T23:22:09.544Z,100481.86
2019-04-14T23:25:14.826Z,100479.52
2019-04-14T23:28:20.190Z,100481.22
2019-04-14T23:31:25.356Z,100480.03
2019-04-14T23:34:30.644Z,100477.19
2019-04-14T23:37:35.957Z,100474.85
2019-04-14T23:40:42.190Z,100470.83
2019-04-14T23:43:47.419Z,100466.15
2019-04-14T23:46:52.522Z,100462.98
2019-04-14T23:49:57.768Z,100465.31
2019-04-14T23:53:02.930Z,100461.63
2019-04-14T23:56:08.072Z,100462.14
2019-04-14T23:59:13.241Z,100458.65
